createdAt,value
2019-03-03T00:03:33.204Z,129.30
2019-03-03T00:08:36.942Z,224.47
2019-03-03T00:13:45.170Z,395.03
2019-03-03T00:18:48.778Z,397.70
2019-03-03T00:29:00.721Z,441.37
2019-03-03T00:34:04.425Z,282.80
2019-03-03T00:39:15.930Z,506.45
2019-03-03T00:44:21.146Z,350.60
2019-03-03T00:49:26.439Z,229.73
2019-03-03T00:54:34.558Z,139.03
2019-03-03T00:59:39.716Z,85.10
2019-03-03T01:04:54.389Z,61.45
2019-03-03T01:09:59.575Z,45.13
2019-03-03T01:15:08.028Z,37.63
2019-03-03T01:20:31.578Z,43.33
2019-03-03T01:25:35.377Z,327.87
2019-03-03T01:30:38.995Z,328.53
2019-03-03T01:35:42.718Z,349.73
2019-03-03T01:40:46.535Z,255.87
2019-03-03T01:45:50.018Z,136.97
2019-03-03T01:50:53.654Z,73.67
2019-03-03T01:55:56.953Z,47.25
2019-03-03T02:01:00.780Z,33.65
2019-03-03T02:06:05.727Z,30.10
2019-03-03T02:11:09.362Z,25.20
2019-03-03T02:16:13.289Z,22.67
2019-03-03T02:21:16.779Z,22.80
2019-03-03T02:26:20.519Z,29.63
2019-03-03T02:36:27.625Z,468.03
2019-03-03T02:41:30.926Z,355.67
2019-03-03T02:46:34.947Z,207.10
2019-03-03T02:51:38.781Z,121.97
2019-03-03T02:56:42.605Z,63.47
2019-03-03T03:01:47.871Z,42.40
2019-03-03T03:06:59.291Z,30.77
2019-03-03T03:12:07.774Z,24.67
2019-03-03T03:17:13.861Z,21.77
2019-03-03T03:22:34.387Z,20.83
2019-03-03T03:27:51.654Z,17.73
2019-03-03T03:32:56.754Z,16.90
2019-03-03T03:38:04.683Z,16.27
2019-03-03T03:43:26.050Z,14.80
2019-03-03T03:48:31.371Z,14.80
2019-03-03T03:53:37.637Z,13.83
2019-03-03T03:58:42.684Z,14.00
2019-03-03T04:03:56.855Z,14.25
2019-03-03T04:09:02.201Z,14.40
2019-03-03T04:14:10.043Z,14.40
2019-03-03T04:19:15.629Z,13.90
2019-03-03T04:24:27.277Z,48.90
2019-03-03T04:29:41.753Z,301.53
2019-03-03T04:34:49.851Z,188.97
2019-03-03T04:40:07.422Z,105.53
2019-03-03T04:45:22.801Z,43.90
2019-03-03T04:50:30.829Z,23.60
2019-03-03T04:55:46.629Z,16.50
2019-03-03T05:01:07.861Z,13.55
2019-03-03T05:06:11.093Z,12.60
2019-03-03T05:11:25.200Z,11.50
2019-03-03T05:16:39.501Z,12.00
2019-03-03T05:26:46.621Z,12.10
2019-03-03T05:31:49.843Z,11.10
2019-03-03T05:36:54.068Z,11.13
2019-03-03T05:41:57.693Z,11.47
2019-03-03T05:47:01.293Z,10.97
2019-03-03T05:52:04.803Z,10.60
2019-03-03T05:57:08.824Z,10.85
2019-03-03T06:02:12.652Z,11.40
2019-03-03T06:07:33.639Z,12.13
2019-03-03T06:17:40.545Z,11.83
2019-03-03T06:22:44.060Z,10.60
2019-03-03T06:27:47.594Z,10.93
2019-03-03T06:37:54.828Z,10.13
2019-03-03T06:42:58.408Z,10.30
2019-03-03T06:48:01.861Z,10.13
2019-03-03T06:53:05.645Z,10.77
2019-03-03T07:03:12.587Z,11.67
2019-03-03T07:13:19.577Z,10.63
2019-03-03T07:23:26.567Z,10.63
2019-03-03T07:33:33.743Z,10.63
2019-03-03T07:38:37.304Z,10.83
2019-03-03T07:43:40.767Z,10.00
2019-03-03T07:48:44.347Z,10.77
2019-03-03T07:53:47.784Z,10.03
2019-03-03T07:58:51.397Z,9.80
2019-03-03T08:03:54.853Z,9.67
2019-03-03T08:08:58.438Z,8.70
2019-03-03T08:14:01.914Z,8.47
2019-03-03T08:19:05.455Z,8.57
2019-03-03T08:24:08.985Z,9.13
2019-03-03T08:29:12.543Z,9.03
2019-03-03T08:39:19.692Z,9.13
2019-03-03T08:49:40.984Z,8.40
2019-03-03T08:54:46.061Z,8.17
2019-03-03T08:59:49.348Z,8.00
2019-03-03T09:05:09.839Z,8.63
2019-03-03T09:10:25.337Z,8.10
2019-03-03T09:25:58.801Z,7.27
2019-03-03T09:31:07.020Z,7.33
2019-03-03T09:36:28.450Z,6.57
2019-03-03T09:41:31.617Z,7.00
2019-03-03T09:51:50.995Z,7.03
2019-03-03T09:56:57.274Z,6.20
2019-03-03T10:02:08.290Z,6.80
2019-03-03T10:07:19.463Z,8.47
2019-03-03T10:12:36.521Z,9.07
2019-03-03T10:17:50.839Z,8.10
2019-03-03T10:22:58.657Z,6.97
2019-03-03T10:33:37.073Z,7.07
2019-03-03T10:38:57.502Z,6.60
2019-03-03T10:44:00.650Z,6.15
2019-03-03T10:54:15.452Z,6.03
2019-03-03T10:59:20.524Z,5.43
2019-03-03T11:04:41.662Z,5.80
2019-03-03T11:15:03.666Z,6.47
2019-03-03T11:30:22.784Z,6.60
2019-03-03T11:35:27.842Z,6.30
2019-03-03T11:40:36.022Z,5.77
2019-03-03T11:45:56.793Z,5.47
2019-03-03T11:51:07.653Z,5.20
2019-03-03T11:56:11.630Z,5.95
2019-03-03T12:06:31.836Z,5.10
2019-03-03T12:12:06.793Z,5.23
2019-03-03T12:17:12.021Z,5.07
2019-03-03T12:22:17.292Z,4.53
2019-03-03T12:27:41.020Z,5.20
2019-03-03T12:32:49.302Z,4.40
2019-03-03T12:38:06.737Z,4.97
2019-03-03T12:43:17.740Z,5.28
2019-03-03T12:48:29.051Z,5.93
2019-03-03T12:53:37.352Z,6.00
2019-03-03T12:58:54.795Z,5.80
2019-03-03T13:04:00.026Z,5.60
2019-03-03T13:09:17.787Z,5.73
2019-03-03T13:14:22.838Z,5.03
2019-03-03T13:19:28.024Z,5.20
2019-03-03T13:30:00.727Z,5.33
2019-03-03T13:35:08.697Z,5.60
2019-03-03T13:40:25.783Z,5.17
2019-03-03T13:45:29.485Z,5.20
2019-03-03T13:50:33.316Z,5.00
2019-03-03T13:55:36.819Z,6.22
2019-03-03T14:00:40.450Z,5.63
2019-03-03T14:05:44.018Z,4.90
2019-03-03T14:10:47.673Z,5.07
2019-03-03T14:15:51.026Z,5.58
2019-03-03T14:20:54.588Z,4.65
2019-03-03T14:25:58.035Z,4.67
2019-03-03T14:31:01.593Z,6.12
2019-03-03T14:41:08.677Z,80.67
2019-03-03T14:46:12.552Z,236.37
2019-03-03T14:51:16.382Z,47.60
2019-03-03T14:56:19.995Z,20.23
2019-03-03T15:01:23.630Z,10.93
2019-03-03T15:06:28.328Z,10.75
2019-03-03T15:11:31.868Z,19.30
2019-03-03T15:16:35.637Z,18.87
2019-03-03T15:21:39.406Z,13.93
2019-03-03T15:26:43.025Z,17.23
2019-03-03T15:31:46.647Z,11.53
2019-03-03T15:36:50.282Z,28.10
2019-03-03T15:41:53.776Z,28.30
2019-03-03T15:46:57.582Z,44.53
2019-03-03T15:52:02.134Z,91.53
2019-03-03T15:57:05.751Z,40.60
2019-03-03T16:02:09.363Z,24.27
2019-03-03T16:07:12.973Z,29.47
2019-03-03T16:12:16.615Z,23.93
2019-03-03T16:17:20.414Z,29.57
2019-03-03T16:22:24.002Z,18.20
2019-03-03T16:27:28.008Z,14.00
2019-03-03T16:32:31.679Z,8.43
2019-03-03T16:37:35.710Z,10.33
2019-03-03T16:42:39.618Z,54.60
2019-03-03T16:47:45.641Z,52.33
2019-03-03T16:52:48.795Z,16.30
2019-03-03T16:57:52.439Z,23.93
2019-03-03T17:02:55.995Z,22.90
2019-03-03T17:07:59.838Z,113.47
2019-03-03T17:13:03.565Z,115.73
2019-03-03T17:18:07.459Z,92.63
2019-03-03T17:23:11.074Z,147.90
2019-03-03T17:28:14.718Z,210.07
2019-03-03T17:33:18.407Z,230.80
2019-03-03T17:38:21.947Z,104.10
2019-03-03T17:43:25.758Z,66.43
2019-03-03T17:48:29.384Z,34.47
2019-03-03T17:53:33.405Z,21.30
2019-03-03T17:58:36.997Z,24.47
2019-03-03T18:03:40.551Z,12.17
2019-03-03T18:08:45.685Z,7.30
2019-03-03T18:14:35.275Z,6.17
2019-03-03T18:19:38.786Z,7.20
2019-03-03T18:24:42.720Z,23.83
2019-03-03T18:34:49.775Z,35.63
2019-03-03T18:39:53.455Z,20.83
2019-03-03T18:44:57.020Z,15.80
2019-03-03T18:50:00.487Z,15.30
2019-03-03T18:55:04.024Z,34.30
2019-03-03T19:05:12.711Z,29.23
2019-03-03T19:10:24.959Z,138.30
2019-03-03T19:15:27.893Z,220.57
2019-03-03T19:20:32.063Z,46.33
2019-03-03T19:25:35.429Z,17.15
2019-03-03T19:30:39.019Z,34.20
2019-03-03T19:35:42.824Z,117.63
2019-03-03T19:40:46.799Z,47.17
2019-03-03T19:45:50.606Z,68.17
2019-03-03T19:50:54.364Z,58.87
2019-03-03T19:55:59.574Z,99.23
2019-03-03T20:01:03.419Z,107.97
2019-03-03T20:06:07.070Z,64.60
2019-03-03T20:11:10.810Z,14.50
2019-03-03T20:16:14.443Z,38.30
2019-03-03T20:21:18.022Z,30.40
2019-03-03T20:26:21.687Z,166.90
2019-03-03T20:31:25.390Z,52.83
2019-03-03T20:36:28.982Z,23.27
2019-03-03T20:41:33.001Z,28.33
2019-03-03T20:46:36.545Z,14.67
2019-03-03T20:51:40.342Z,45.50
2019-03-03T20:56:44.288Z,12.82
2019-03-03T21:01:47.912Z,146.93
2019-03-03T21:06:51.829Z,72.27
2019-03-03T21:11:55.756Z,122.10
2019-03-03T21:16:59.369Z,25.40
2019-03-03T21:22:02.893Z,12.97
2019-03-03T21:27:06.798Z,131.77
2019-03-03T21:32:10.418Z,14.60
2019-03-03T21:37:14.028Z,5.50
2019-03-03T21:42:19.029Z,4.20
2019-03-03T21:47:22.491Z,5.67
2019-03-03T21:52:26.145Z,93.27
2019-03-03T21:57:29.826Z,232.83
2019-03-03T22:02:33.533Z,182.07
2019-03-03T22:07:37.371Z,99.13
2019-03-03T22:12:40.909Z,91.17
2019-03-03T22:17:44.586Z,65.37
2019-03-03T22:22:48.405Z,52.60
2019-03-03T22:27:52.136Z,89.63
2019-03-03T22:32:55.757Z,47.47
2019-03-03T22:38:01.436Z,27.23
2019-03-03T22:43:05.113Z,30.10
2019-03-03T22:48:08.748Z,34.10
2019-03-03T22:53:12.488Z,22.60
2019-03-03T22:58:16.525Z,32.90
2019-03-03T23:03:20.101Z,17.32
2019-03-03T23:08:23.410Z,20.82
2019-03-03T23:13:27.093Z,60.57
2019-03-03T23:28:43.000Z,123.27
2019-03-03T23:33:47.423Z,88.67
2019-03-03T23:38:51.759Z,154.97
2019-03-03T23:43:55.623Z,84.03
2019-03-03T23:48:59.500Z,91.23
2019-03-03T23:54:03.708Z,183.77
2019-03-03T23:59:07.454Z,185.77
